Hocking — AEPB — position and weather

sailwx.info

Track history (hours):
 
Tides and Currents Weather Stations Pressure Air Temp Water Temp Dewpoint Dewpoint Depression Visibility Wind Speed Wind Dir Waves Ship Positions

Hocking

Last reported at 2017-Sep-19 18:08 UTC. Time now 2017-Sep-19 22:22 UTC.
Position N 40°41' W 074°04'.

Length 21 m; draft 1.8 m.

Type: Other ship. MMSI: 366999414.

Date/timePositionNaut miles runAvg speedWind from/ knotsBaromVisibWave heightAir tempDewpointWater temp
2017-Sep-19 18:08N 40°41' W 074°04'1 5.4
2017-Sep-19 18:00N 40°41' W 074°04'1 1.5
2017-Sep-19 17:30N 40°40' W 074°04'3 5.0
2017-Sep-19 17:00N 40°42' W 074°02'2 4.6
2017-Sep-19 16:30N 40°44' W 074°02'0 0.0
2017-Sep-19 16:00N 40°44' W 074°02'0 0.0
2017-Sep-19 15:30N 40°44' W 074°02'0 0.0
2017-Sep-19 15:00N 40°44' W 074°02'0 0.7
2017-Sep-19 14:30N 40°44' W 074°01'3 5.4
2017-Sep-19 14:00N 40°41' W 074°02'4 7.0
2017-Sep-19 13:30N 40°45' W 074°01'3 6.2
2017-Sep-19 13:00N 40°48' W 073°59'4 7.2
2017-Sep-19 12:30N 40°44' W 074°01'4 4.5
2017-Sep-19 11:33N 40°40' W 074°03'0 8.3
2017-Sep-19 11:30N 40°40' W 074°03'2 0.1
2017-Sep-18 15:28N 40°40' W 074°00'3 6.9
2017-Sep-18 15:00N 40°37' W 074°03'4 7.5
2017-Sep-18 14:31N 40°34' W 074°02'2 1.0
2017-Sep-18 12:48N 40°35' W 074°04'2 7.7
2017-Sep-18 12:31N 40°37' W 074°03'4 7.0
2017-Sep-18 12:01N 40°40' W 074°04'  
2017-Sep-14 18:29N 40°41' W 074°04'2 4.4
2017-Sep-14 18:00N 40°40' W 074°02'1 2.1
2017-Sep-14 17:30N 40°41' W 074°03'1 2.4
2017-Sep-14 17:00N 40°40' W 074°04'2 4.3
2017-Sep-14 16:30N 40°40' W 074°01'3 0.1
2017-Sep-13 18:46N 40°41' W 074°04'2 6.4
2017-Sep-13 18:30N 40°39' W 074°04'4 7.0
2017-Sep-13 18:00N 40°39' W 074°09'2 3.8
2017-Sep-13 17:29N 40°39' W 074°06'3 6.7
2017-Sep-13 17:00N 40°41' W 074°03'4 7.1
2017-Sep-13 16:30N 40°44' W 074°01'2 1.3
2017-Sep-13 14:56N 40°42' W 074°02'510.9
2017-Sep-13 14:30N 40°37' W 074°03'711.1
2017-Sep-13 13:51N 40°30' W 074°06'1 1.9
2017-Sep-13 13:30N 40°30' W 074°06'4 8.2
2017-Sep-13 13:00N 40°34' W 074°04'510.3
2017-Sep-13 12:30N 40°39' W 074°03'2 0.1
2017-Sep-12 18:32N 40°41' W 074°04'0 1.4
2017-Sep-12 18:30N 40°41' W 074°04'2 3.1
2017-Sep-12 18:00N 40°40' W 074°03'5 9.2
2017-Sep-12 17:30N 40°44' W 074°01'4 8.1
2017-Sep-12 17:00N 40°48' W 073°59'2 3.7
2017-Sep-12 16:30N 40°50' W 073°58'0 0.0
2017-Sep-12 16:00N 40°50' W 073°58'0 0.0
2017-Sep-12 15:30N 40°50' W 073°58'0 0.0
2017-Sep-12 15:00N 40°50' W 073°58'0 0.0
2017-Sep-12 14:31N 40°50' W 073°58'2 3.9
2017-Sep-12 14:00N 40°48' W 073°59'4 7.4
2017-Sep-12 13:30N 40°44' W 074°01'4 7.7
2017-Sep-12 13:00N 40°41' W 074°02'1 2.6
2017-Sep-12 12:30N 40°40' W 074°03'1 0.1
2017-Sep-11 18:39N 40°41' W 074°04'0 1.5
2017-Sep-11 18:30N 40°41' W 074°04'2 4.5
2017-Sep-11 18:00N 40°42' W 074°02'2 3.7
2017-Sep-11 17:30N 40°44' W 074°02'0 0.0
2017-Sep-11 17:00N 40°44' W 074°02'0 0.0
2017-Sep-11 16:30N 40°44' W 074°02'4 7.2
2017-Sep-11 16:00N 40°47' W 073°60'0 0.3
2017-Sep-11 15:30N 40°47' W 073°59'4 8.5
2017-Sep-11 15:00N 40°43' W 074°01'5 9.6
2017-Sep-11 14:30N 40°39' W 074°02'610.2
2017-Sep-11 13:58N 40°33' W 074°02'2 1.1
2017-Sep-11 12:30N 40°34' W 074°04'510.4
2017-Sep-11 12:00N 40°39' W 074°03'  
Track history (hours):
 
Tides and Currents Weather Stations Pressure Air Temp Water Temp Dewpoint Dewpoint Depression Visibility Wind Speed Wind Dir Waves Ship Positions

Hocking

Last reported at 2017-Sep-19 18:08 UTC. Time now 2017-Sep-19 22:22 UTC.
Position N 40°41' W 074°04'.

Length 21 m; draft 1.8 m.

Type: Other ship. MMSI: 366999414.

Date/timePositionNaut miles runAvg speedWind from/ knotsBaromVisibWave heightAir tempDewpointWater temp
2017-Sep-19 18:08N 40°41' W 074°04'1 5.4
2017-Sep-19 18:00N 40°41' W 074°04'1 1.5
2017-Sep-19 17:30N 40°40' W 074°04'3 5.0
2017-Sep-19 17:00N 40°42' W 074°02'2 4.6
2017-Sep-19 16:30N 40°44' W 074°02'0 0.0
2017-Sep-19 16:00N 40°44' W 074°02'0 0.0
2017-Sep-19 15:30N 40°44' W 074°02'0 0.0
2017-Sep-19 15:00N 40°44' W 074°02'0 0.7
2017-Sep-19 14:30N 40°44' W 074°01'3 5.4
2017-Sep-19 14:00N 40°41' W 074°02'4 7.0
2017-Sep-19 13:30N 40°45' W 074°01'3 6.2
2017-Sep-19 13:00N 40°48' W 073°59'4 7.2
2017-Sep-19 12:30N 40°44' W 074°01'4 4.5
2017-Sep-19 11:33N 40°40' W 074°03'0 8.3
2017-Sep-19 11:30N 40°40' W 074°03'2 0.1
2017-Sep-18 15:28N 40°40' W 074°00'3 6.9
2017-Sep-18 15:00N 40°37' W 074°03'4 7.5
2017-Sep-18 14:31N 40°34' W 074°02'2 1.0
2017-Sep-18 12:48N 40°35' W 074°04'2 7.7
2017-Sep-18 12:31N 40°37' W 074°03'4 7.0
2017-Sep-18 12:01N 40°40' W 074°04'  
2017-Sep-14 18:29N 40°41' W 074°04'2 4.4
2017-Sep-14 18:00N 40°40' W 074°02'1 2.1
2017-Sep-14 17:30N 40°41' W 074°03'1 2.4
2017-Sep-14 17:00N 40°40' W 074°04'2 4.3
2017-Sep-14 16:30N 40°40' W 074°01'3 0.1
2017-Sep-13 18:46N 40°41' W 074°04'2 6.4
2017-Sep-13 18:30N 40°39' W 074°04'4 7.0
2017-Sep-13 18:00N 40°39' W 074°09'2 3.8
2017-Sep-13 17:29N 40°39' W 074°06'3 6.7
2017-Sep-13 17:00N 40°41' W 074°03'4 7.1
2017-Sep-13 16:30N 40°44' W 074°01'2 1.3
2017-Sep-13 14:56N 40°42' W 074°02'510.9
2017-Sep-13 14:30N 40°37' W 074°03'711.1
2017-Sep-13 13:51N 40°30' W 074°06'1 1.9
2017-Sep-13 13:30N 40°30' W 074°06'4 8.2
2017-Sep-13 13:00N 40°34' W 074°04'510.3
2017-Sep-13 12:30N 40°39' W 074°03'2 0.1
2017-Sep-12 18:32N 40°41' W 074°04'0 1.4
2017-Sep-12 18:30N 40°41' W 074°04'2 3.1
2017-Sep-12 18:00N 40°40' W 074°03'5 9.2
2017-Sep-12 17:30N 40°44' W 074°01'4 8.1
2017-Sep-12 17:00N 40°48' W 073°59'2 3.7
2017-Sep-12 16:30N 40°50' W 073°58'0 0.0
2017-Sep-12 16:00N 40°50' W 073°58'0 0.0
2017-Sep-12 15:30N 40°50' W 073°58'0 0.0
2017-Sep-12 15:00N 40°50' W 073°58'0 0.0
2017-Sep-12 14:31N 40°50' W 073°58'2 3.9
2017-Sep-12 14:00N 40°48' W 073°59'4 7.4
2017-Sep-12 13:30N 40°44' W 074°01'4 7.7
2017-Sep-12 13:00N 40°41' W 074°02'1 2.6
2017-Sep-12 12:30N 40°40' W 074°03'1 0.1
2017-Sep-11 18:39N 40°41' W 074°04'0 1.5
2017-Sep-11 18:30N 40°41' W 074°04'2 4.5
2017-Sep-11 18:00N 40°42' W 074°02'2 3.7
2017-Sep-11 17:30N 40°44' W 074°02'0 0.0
2017-Sep-11 17:00N 40°44' W 074°02'0 0.0
2017-Sep-11 16:30N 40°44' W 074°02'4 7.2
2017-Sep-11 16:00N 40°47' W 073°60'0 0.3
2017-Sep-11 15:30N 40°47' W 073°59'4 8.5
2017-Sep-11 15:00N 40°43' W 074°01'5 9.6
2017-Sep-11 14:30N 40°39' W 074°02'610.2
2017-Sep-11 13:58N 40°33' W 074°02'2 1.1
2017-Sep-11 12:30N 40°34' W 074°04'510.4
2017-Sep-11 12:00N 40°39' W 074°03'  

Dump ship's entire track history